首页
METAR-TAF:

METAR-TAF

机场 :

賓格爾, 土耳其

纬度: 38-51-40N, 经度: 40-35-33E, 海拔: 1063米

当前天气观测

该预报发布于13小时和13分钟前的12:50 UTC
风速9节,风向,在南转南东西南之间变化
温度 23°C
湿度 29%
气压 1016 hPa
能见度10公里或以上
少量云层高于3500英尺

METAR: LTCU 301250Z 19009KT 160V220 9999 FEW035 23/04 Q1016

时间: 05:03 (02:03 UTC)

预报

该预报发布于12小时和23分钟前的13:40 UTC
预报有效从30日的 15点(UTC)到 30日的 24点(UTC)
风速2节,风向多变
能见度10公里或以上
1500米以下无云,无积雨云

TAF: LTCU 301340Z 3015/3024 VRB02KT CAVOK

超过4000个机场的气象观测和天气预报(METAR&TAF报告)。

可查询的气象台以黄色和红色小点在地图上表示。

将鼠标移到小点上方,可查看气象台名称。

然后点击查看天气观测和预报。

如需切换地图:点击带黑十字的绿色按钮放大地图;点击带横线的绿色按钮缩小地图;或者点击绿色箭头查看邻近地区的地图。


METAR-TAF: